createdAt,value
2022-12-17T14:05:33.622Z,-0.96
2022-12-17T14:20:37.548Z,-1.00
2022-12-17T14:35:41.063Z,-0.99
2022-12-17T14:50:55.066Z,-0.88
2022-12-17T15:06:02.521Z,-0.85
2022-12-17T15:21:06.211Z,-0.71
2022-12-17T15:36:12.165Z,-0.76
2022-12-17T15:51:19.532Z,-0.92
2022-12-17T16:06:23.424Z,-1.03
2022-12-17T16:21:27.315Z,-0.93
2022-12-17T16:36:31.046Z,-0.87
2022-12-17T16:51:35.552Z,-0.75
2022-12-17T17:06:45.570Z,-0.72
2022-12-17T17:21:54.572Z,-0.62
2022-12-17T17:36:58.070Z,-0.33
2022-12-17T17:52:10.218Z,-0.48
2022-12-17T18:07:30.045Z,-0.53
2022-12-17T18:22:33.798Z,-0.56
2022-12-17T18:37:38.966Z,-0.64
2022-12-17T18:52:42.547Z,-0.70
2022-12-17T19:07:46.386Z,-0.74
2022-12-17T19:22:49.956Z,-0.72
2022-12-17T19:37:54.010Z,-0.75
2022-12-17T19:52:57.359Z,-0.84
2022-12-17T20:08:01.001Z,-0.82
2022-12-17T20:23:04.837Z,-0.91
2022-12-17T20:38:08.707Z,-0.90
2022-12-17T20:53:12.835Z,-0.93
2022-12-17T21:08:16.833Z,-0.82
2022-12-17T21:23:20.898Z,-0.77
2022-12-17T21:38:28.039Z,-0.87
2022-12-17T21:53:31.413Z,-0.75
2022-12-17T22:08:35.987Z,-0.50
2022-12-17T22:23:39.975Z,-0.36
2022-12-17T22:42:17.671Z,-0.46
2022-12-17T22:54:07.461Z,-0.87
2022-12-17T23:09:12.165Z,-0.86
2022-12-17T23:24:15.402Z,-0.80
2022-12-17T23:39:18.548Z,-0.71
2022-12-17T23:54:21.830Z,-0.72
